LiveATC.Net - Listen to live air traffic control over the Internet!


ICAO: KF44  IATA: F44   Airport: Athens Municipal Airport
City: Athens   State/Province: Texas
Country: United States   Continent: North America
KF44 METAR Weather: KF44 060315Z AUTO 00000KT 10SM CLR 15/11 A3003 RMK AO2
KF44 Flight Activity (FlightAware)
KF44 Airport Info   (AirNav) (iFlightPlanner)
KF44 VFR Sectional Chart   (iFlightPlanner) 
KF44 IFR Low Chart   (iFlightPlanner) 
F44 CTAF
Feed Status: DOWN
Last heard on: 2015-12-13 22:48:03 (144 days 4 hours 47 minutes ago)
F44 CTAF Audio Archives
FacilityFrequency
Athens CTAF123.000


NOTICE

Unauthorized use prohibited. See LiveATC.net Terms of Service


Find LiveATC Audio Streams


Airport/ARTCC Code

Frequency
(e.g., 124.400, 128.75)
Site-wide search

Browse LiveATC Feeds
LiveATC Coverage Map
Top 50 LiveATC Feeds
Bad Weather Areas

LiveATC FAQ
Offer a LiveATC Feed
Contact LiveATC.net
Press Inquiries

LiveATC on iPhone
LiveATC on Android

Windows Phone
Windows 8/10

LiveATC Mobile
(Mobile browser)

ATC Audio Archives
Interesting Recordings

LiveATC Forums


Home Page
About LiveATC.net
Make a Donation
LiveATC Store

Terms of Use
Privacy Policy

Canadian Air Freqs

AIRMETs/SIGMETs

FAA Airport Status
Nat'l Airspace Status
Arrival Demand Charts


Server Software By:
Icecast.org
Liquidsoap